createdAt,value
2023-02-23T00:01:24.557Z,25.70
2023-02-23T00:03:54.906Z,26.88
2023-02-23T00:06:21.275Z,26.58
2023-02-23T00:08:52.204Z,25.90
2023-02-23T00:11:19.763Z,25.23
2023-02-23T00:13:49.914Z,25.38
2023-02-23T00:16:18.183Z,26.83
2023-02-23T00:18:50.686Z,27.92
2023-02-23T00:23:57.240Z,26.80
2023-02-23T00:26:25.616Z,28.70
2023-02-23T00:28:55.004Z,29.00
2023-02-23T00:31:25.571Z,29.30
2023-02-23T00:33:54.593Z,29.75
2023-02-23T00:36:23.766Z,30.88
2023-02-23T00:38:53.841Z,30.02
2023-02-23T00:41:23.827Z,30.58
2023-02-23T00:43:50.210Z,31.35
2023-02-23T00:46:18.277Z,30.60
2023-02-23T00:48:45.616Z,31.90
2023-02-23T00:51:12.674Z,33.95
2023-02-23T00:53:39.094Z,35.22
2023-02-23T00:56:06.404Z,35.50
2023-02-23T00:58:33.077Z,34.40
2023-02-23T01:00:59.520Z,33.63
2023-02-23T01:03:26.948Z,33.45
2023-02-23T01:05:55.120Z,34.65
2023-02-23T01:08:24.592Z,36.85
2023-02-23T01:10:53.840Z,38.15
2023-02-23T01:13:20.665Z,37.33
2023-02-23T01:15:50.752Z,36.88
2023-02-23T01:18:17.604Z,37.35
2023-02-23T01:20:44.864Z,39.28
2023-02-23T01:23:12.863Z,38.08
2023-02-23T01:25:40.958Z,36.63
2023-02-23T01:28:08.892Z,37.08
2023-02-23T01:30:35.381Z,38.00
2023-02-23T01:33:02.529Z,40.78
2023-02-23T01:35:29.308Z,41.63
2023-02-23T01:37:55.724Z,42.50
2023-02-23T01:40:29.959Z,44.00
2023-02-23T01:43:06.724Z,43.97
2023-02-23T01:45:37.686Z,44.80
2023-02-23T01:48:43.575Z,45.00
2023-02-23T01:51:11.794Z,46.08
2023-02-23T01:53:42.140Z,44.47
2023-02-23T01:56:16.126Z,46.90
2023-02-23T01:58:46.096Z,47.22
2023-02-23T02:01:12.866Z,47.72
2023-02-23T02:03:41.371Z,46.47
2023-02-23T02:06:10.195Z,46.30
2023-02-23T02:08:45.350Z,45.97
2023-02-23T02:11:25.940Z,46.95
2023-02-23T02:13:58.416Z,46.22
2023-02-23T02:16:46.775Z,46.17
2023-02-23T02:19:34.364Z,46.92
2023-02-23T02:22:30.660Z,50.42
2023-02-23T02:25:29.302Z,48.65
2023-02-23T02:28:18.052Z,50.28
2023-02-23T02:31:04.993Z,50.42
2023-02-23T02:34:07.320Z,48.53
2023-02-23T02:36:57.777Z,49.17
2023-02-23T02:39:39.203Z,47.20
2023-02-23T02:42:15.535Z,46.38
2023-02-23T02:45:03.986Z,45.53
2023-02-23T02:47:38.646Z,48.33
2023-02-23T02:50:19.608Z,47.03
2023-02-23T02:52:54.820Z,50.40
2023-02-23T02:55:27.206Z,49.28
2023-02-23T02:57:57.101Z,51.35
2023-02-23T03:00:59.815Z,51.22
2023-02-23T03:03:52.288Z,50.72
2023-02-23T03:06:48.542Z,52.30
2023-02-23T03:09:51.620Z,52.85
2023-02-23T03:15:57.853Z,50.85
2023-02-23T03:19:01.565Z,52.28
2023-02-23T03:21:52.907Z,52.25
2023-02-23T03:25:03.148Z,54.25
2023-02-23T03:28:01.916Z,54.78
2023-02-23T03:30:58.402Z,54.85
2023-02-23T03:33:55.010Z,56.80
2023-02-23T03:36:45.546Z,54.60
2023-02-23T03:39:44.464Z,54.45
2023-02-23T03:42:32.901Z,53.72
2023-02-23T03:45:18.384Z,56.70
2023-02-23T03:48:03.541Z,54.83
2023-02-23T03:51:00.136Z,56.38
2023-02-23T03:53:54.441Z,53.83
2023-02-23T03:56:41.956Z,56.45
2023-02-23T03:59:28.011Z,54.50
2023-02-23T04:02:14.074Z,55.08
2023-02-23T04:05:00.123Z,58.13
2023-02-23T04:07:45.320Z,57.45
2023-02-23T04:10:30.244Z,58.88
2023-02-23T04:13:17.194Z,56.15
2023-02-23T04:15:55.561Z,56.45
2023-02-23T04:18:25.043Z,57.55
2023-02-23T04:20:51.736Z,59.65
2023-02-23T04:23:18.267Z,61.20
2023-02-23T04:25:44.627Z,59.05
2023-02-23T04:28:11.158Z,60.58
2023-02-23T04:30:37.536Z,62.05
2023-02-23T04:33:04.129Z,61.60
2023-02-23T04:35:31.340Z,59.00
2023-02-23T04:37:57.987Z,60.90
2023-02-23T04:40:25.001Z,60.70
2023-02-23T04:42:51.869Z,60.35
2023-02-23T04:45:18.332Z,62.55
2023-02-23T04:47:44.901Z,62.03
2023-02-23T04:50:12.270Z,63.47
2023-02-23T04:52:38.977Z,61.47
2023-02-23T04:55:06.894Z,60.63
2023-02-23T04:57:34.233Z,63.80
2023-02-23T05:00:00.810Z,63.28
2023-02-23T05:02:27.188Z,61.65
2023-02-23T05:04:53.585Z,62.72
2023-02-23T05:07:19.973Z,62.55
2023-02-23T05:09:46.340Z,64.22
2023-02-23T05:12:12.718Z,63.33
2023-02-23T05:14:39.103Z,66.93
2023-02-23T05:17:08.830Z,63.28
2023-02-23T05:19:35.475Z,65.43
2023-02-23T05:22:01.874Z,66.20
2023-02-23T05:24:28.314Z,63.63
2023-02-23T05:26:54.682Z,65.43
2023-02-23T05:29:21.284Z,65.55
2023-02-23T05:31:48.596Z,65.90
2023-02-23T05:34:17.941Z,66.70
2023-02-23T05:36:44.311Z,67.85
2023-02-23T05:39:10.734Z,71.03
2023-02-23T05:41:37.127Z,75.22
2023-02-23T05:44:03.550Z,77.55
2023-02-23T05:46:30.128Z,79.55
2023-02-23T05:48:59.306Z,79.20
2023-02-23T05:51:26.420Z,78.80
2023-02-23T05:53:53.976Z,77.60
2023-02-23T05:56:21.680Z,72.68
2023-02-23T05:58:53.041Z,71.95
2023-02-23T06:01:20.543Z,70.55
2023-02-23T06:03:47.522Z,76.47
2023-02-23T06:06:14.177Z,74.72
2023-02-23T06:08:40.932Z,75.43
2023-02-23T06:11:07.343Z,77.65
2023-02-23T06:13:33.739Z,79.55
2023-02-23T06:16:00.527Z,80.60
2023-02-23T06:18:28.145Z,80.10
2023-02-23T06:20:54.543Z,78.53
2023-02-23T06:23:20.972Z,77.68
2023-02-23T06:25:47.493Z,76.13
2023-02-23T06:28:14.185Z,75.45
2023-02-23T06:30:40.848Z,76.65
2023-02-23T06:33:07.821Z,76.13
2023-02-23T06:35:34.753Z,73.68
2023-02-23T06:38:01.613Z,76.80
2023-02-23T06:40:28.666Z,76.55
2023-02-23T06:42:55.127Z,75.47
2023-02-23T06:45:21.555Z,76.93
2023-02-23T06:47:47.959Z,75.45
2023-02-23T06:50:14.924Z,74.45
2023-02-23T06:52:41.760Z,76.22
2023-02-23T06:55:10.098Z,77.75
2023-02-23T06:57:36.485Z,78.03
2023-02-23T07:00:03.783Z,74.82
2023-02-23T07:02:30.192Z,76.80
2023-02-23T07:04:56.579Z,78.93
2023-02-23T07:07:23.651Z,76.00
2023-02-23T07:09:50.105Z,77.65
2023-02-23T07:12:16.591Z,77.00
2023-02-23T07:14:43.117Z,78.35
2023-02-23T07:17:12.200Z,78.05
2023-02-23T07:19:38.907Z,75.93
2023-02-23T07:22:05.811Z,77.38
2023-02-23T07:24:32.312Z,77.25
2023-02-23T07:26:58.674Z,79.18
2023-02-23T07:29:25.074Z,78.35
2023-02-23T07:31:51.524Z,76.47
2023-02-23T07:34:17.997Z,79.18
2023-02-23T07:36:44.364Z,78.30
2023-02-23T07:39:10.828Z,80.30
2023-02-23T07:41:37.300Z,75.65
2023-02-23T07:44:03.688Z,78.63
2023-02-23T07:46:30.063Z,80.80
2023-02-23T07:48:56.756Z,79.03
2023-02-23T07:51:26.149Z,81.43
2023-02-23T07:53:52.593Z,78.90
2023-02-23T07:56:18.974Z,80.18
2023-02-23T07:58:45.490Z,78.75
2023-02-23T08:01:12.530Z,77.20
2023-02-23T08:03:39.297Z,79.25
2023-02-23T08:06:06.316Z,78.95
2023-02-23T08:08:33.912Z,80.95
2023-02-23T08:11:01.785Z,77.25
2023-02-23T08:13:31.065Z,76.25
2023-02-23T08:15:57.686Z,81.55
2023-02-23T08:18:24.346Z,75.70
2023-02-23T08:20:50.789Z,75.82
2023-02-23T08:23:18.120Z,78.32
2023-02-23T08:25:44.527Z,76.45
2023-02-23T08:28:10.945Z,76.50
2023-02-23T08:30:37.425Z,76.22
2023-02-23T08:33:05.452Z,75.45
2023-02-23T08:35:31.839Z,75.22
2023-02-23T08:37:59.242Z,77.38
2023-02-23T08:40:25.704Z,73.82
2023-02-23T08:42:52.246Z,74.13
2023-02-23T08:45:19.180Z,76.07
2023-02-23T08:47:47.940Z,71.25
2023-02-23T08:50:16.281Z,74.10
2023-02-23T08:52:42.852Z,73.90
2023-02-23T08:55:11.620Z,72.47
2023-02-23T08:57:38.149Z,72.78
2023-02-23T09:00:13.936Z,72.47
2023-02-23T09:02:41.475Z,70.40
2023-02-23T09:05:09.019Z,71.80
2023-02-23T09:07:37.627Z,72.95
2023-02-23T09:10:04.289Z,69.28
2023-02-23T09:12:30.951Z,67.20
2023-02-23T09:14:57.586Z,65.97
2023-02-23T09:17:23.988Z,62.20
2023-02-23T09:19:50.846Z,61.28
2023-02-23T09:22:18.479Z,60.17
2023-02-23T09:24:45.057Z,61.85
2023-02-23T09:27:14.699Z,57.05
2023-02-23T09:29:43.264Z,55.30
2023-02-23T09:32:10.881Z,54.35
2023-02-23T09:34:37.735Z,55.17
2023-02-23T09:37:04.677Z,51.25
2023-02-23T09:39:38.139Z,47.72
2023-02-23T09:42:17.276Z,45.22
2023-02-23T09:44:56.122Z,44.50
2023-02-23T09:47:30.882Z,44.53
2023-02-23T09:49:59.921Z,43.33
2023-02-23T09:52:29.226Z,45.13
2023-02-23T09:54:55.686Z,42.47
2023-02-23T09:57:37.312Z,43.72
2023-02-23T10:00:12.434Z,44.92
2023-02-23T10:02:51.890Z,44.92
2023-02-23T10:05:18.808Z,44.92
2023-02-23T10:08:09.023Z,43.05
2023-02-23T10:10:38.430Z,44.67
2023-02-23T10:13:40.029Z,46.58
2023-02-23T10:16:22.634Z,45.17
2023-02-23T10:19:00.470Z,45.17
2023-02-23T10:21:41.494Z,44.80
2023-02-23T10:24:15.770Z,44.58
2023-02-23T10:26:54.336Z,44.20
2023-02-23T10:29:29.114Z,44.30
2023-02-23T10:32:27.312Z,44.40
2023-02-23T10:34:56.412Z,44.42
2023-02-23T10:37:24.092Z,43.20
2023-02-23T10:39:51.648Z,46.45
2023-02-23T10:42:33.609Z,43.47
2023-02-23T10:45:00.773Z,46.67
2023-02-23T10:47:30.232Z,44.85
2023-02-23T10:49:57.917Z,44.17
2023-02-23T10:52:31.123Z,43.97
2023-02-23T10:54:58.935Z,43.90
2023-02-23T10:57:27.868Z,45.45
2023-02-23T11:00:19.331Z,46.00
2023-02-23T11:02:47.260Z,44.63
2023-02-23T11:05:37.682Z,46.67
2023-02-23T11:08:11.292Z,44.72
2023-02-23T11:10:37.729Z,45.08
2023-02-23T11:13:04.118Z,44.13
2023-02-23T11:15:49.138Z,47.60
2023-02-23T11:18:22.234Z,47.53
2023-02-23T11:20:49.506Z,45.80
2023-02-23T11:23:21.348Z,47.03
2023-02-23T11:25:49.501Z,45.15
2023-02-23T11:28:22.596Z,45.60
2023-02-23T11:30:49.438Z,45.30
2023-02-23T11:33:18.308Z,45.88
2023-02-23T11:35:45.271Z,48.65
2023-02-23T11:38:27.434Z,48.47
2023-02-23T11:41:05.087Z,47.03
2023-02-23T11:43:31.578Z,46.20
2023-02-23T11:46:00.251Z,45.08
2023-02-23T11:48:38.834Z,53.08
2023-02-23T11:51:05.429Z,46.33
2023-02-23T11:53:32.858Z,44.70
2023-02-23T11:56:07.748Z,48.17
2023-02-23T11:58:46.212Z,45.53
2023-02-23T12:01:16.714Z,48.88
2023-02-23T12:03:57.611Z,46.30
2023-02-23T12:06:30.847Z,45.63
2023-02-23T12:09:02.737Z,44.17
2023-02-23T12:11:32.921Z,46.90
2023-02-23T12:14:04.003Z,50.88
2023-02-23T12:16:38.458Z,50.80
2023-02-23T12:19:10.042Z,45.63
2023-02-23T12:21:43.410Z,45.23
2023-02-23T12:24:37.756Z,44.10
2023-02-23T12:27:04.093Z,41.88
2023-02-23T12:29:42.090Z,44.35
2023-02-23T12:32:14.788Z,44.13
2023-02-23T12:34:50.064Z,45.30
2023-02-23T12:37:36.986Z,46.42
2023-02-23T12:40:25.422Z,47.13
2023-02-23T12:43:02.063Z,54.78
2023-02-23T12:45:39.624Z,49.60
2023-02-23T12:48:18.222Z,57.05
2023-02-23T12:50:51.246Z,51.72
2023-02-23T12:53:39.999Z,52.92
2023-02-23T12:56:29.521Z,55.53
2023-02-23T12:59:25.940Z,49.85
2023-02-23T13:02:01.418Z,51.10
2023-02-23T13:04:39.791Z,52.38
2023-02-23T13:07:22.467Z,54.28
2023-02-23T13:12:54.541Z,43.20
2023-02-23T13:15:48.893Z,42.42
2023-02-23T13:18:25.295Z,43.65
2023-02-23T13:21:03.783Z,42.92
2023-02-23T13:23:41.131Z,43.80
2023-02-23T13:26:39.002Z,43.90
2023-02-23T13:29:12.315Z,42.72
2023-02-23T13:31:41.180Z,43.10
2023-02-23T13:34:12.663Z,43.10
2023-02-23T13:36:40.660Z,39.92
2023-02-23T13:39:50.010Z,40.58
2023-02-23T13:42:35.030Z,36.90
2023-02-23T13:45:22.639Z,37.17
2023-02-23T13:48:19.358Z,35.92
2023-02-23T13:50:59.567Z,35.25
2023-02-23T13:53:34.650Z,35.90
2023-02-23T13:56:04.624Z,33.63
2023-02-23T13:58:32.212Z,33.58
2023-02-23T14:01:12.165Z,32.38
2023-02-23T14:03:56.889Z,32.90
2023-02-23T14:06:25.658Z,33.55
2023-02-23T14:09:00.734Z,30.33
2023-02-23T14:11:36.585Z,28.02
2023-02-23T14:14:03.528Z,21.73
2023-02-23T14:16:30.024Z,20.65
2023-02-23T14:19:06.397Z,19.38
2023-02-23T14:21:37.263Z,20.00
2023-02-23T14:24:04.785Z,19.95
2023-02-23T14:26:32.087Z,20.52
2023-02-23T14:29:20.515Z,21.42
2023-02-23T14:32:03.637Z,20.63
2023-02-23T14:34:43.884Z,21.35
2023-02-23T14:37:19.006Z,22.85
2023-02-23T14:39:45.531Z,20.02
2023-02-23T14:42:20.988Z,19.38
2023-02-23T14:44:51.313Z,30.25
2023-02-23T14:47:21.785Z,21.92
2023-02-23T14:49:51.467Z,18.65
2023-02-23T14:52:22.139Z,19.42
2023-02-23T14:54:48.505Z,18.85
2023-02-23T14:57:21.667Z,18.63
2023-02-23T14:59:58.672Z,19.90
2023-02-23T15:02:27.753Z,19.52
2023-02-23T15:04:54.626Z,19.90
2023-02-23T15:07:33.187Z,19.42
2023-02-23T15:10:00.478Z,19.42
2023-02-23T15:12:35.860Z,18.65
2023-02-23T15:15:04.300Z,19.55
2023-02-23T15:17:32.850Z,19.17
2023-02-23T15:20:15.911Z,19.65
2023-02-23T15:22:43.448Z,18.95
2023-02-23T15:25:16.560Z,20.13
2023-02-23T15:27:45.324Z,20.08
2023-02-23T15:30:30.873Z,20.23
2023-02-23T15:33:01.371Z,21.55
2023-02-23T15:35:28.433Z,20.67
2023-02-23T15:38:05.718Z,20.77
2023-02-23T15:40:40.891Z,19.92
2023-02-23T15:43:10.348Z,20.30
2023-02-23T15:45:49.806Z,21.02
2023-02-23T15:48:20.891Z,20.63
2023-02-23T15:50:53.204Z,20.33
2023-02-23T15:53:37.515Z,20.75
2023-02-23T15:56:14.182Z,20.92
2023-02-23T15:58:56.026Z,22.00
2023-02-23T16:01:25.669Z,20.25
2023-02-23T16:04:14.562Z,19.70
2023-02-23T16:06:51.051Z,20.27
2023-02-23T16:09:24.527Z,19.02
2023-02-23T16:11:55.130Z,20.17
2023-02-23T16:14:23.368Z,19.23
2023-02-23T16:17:08.467Z,18.25
2023-02-23T16:19:40.908Z,19.38
2023-02-23T16:22:16.239Z,19.95
2023-02-23T16:24:42.635Z,19.02
2023-02-23T16:27:11.088Z,18.67
2023-02-23T16:29:41.445Z,17.40
2023-02-23T16:32:18.749Z,18.58
2023-02-23T16:34:48.315Z,18.27
2023-02-23T16:37:20.072Z,17.88
2023-02-23T16:39:48.148Z,18.13
2023-02-23T16:42:29.140Z,18.67
2023-02-23T16:44:56.782Z,19.02
2023-02-23T16:47:23.151Z,17.55
2023-02-23T16:49:50.474Z,16.90
2023-02-23T16:52:25.115Z,19.05
2023-02-23T16:54:53.861Z,17.50
2023-02-23T16:57:24.900Z,18.55
2023-02-23T16:59:52.572Z,22.25
2023-02-23T17:02:19.590Z,21.65
2023-02-23T17:04:49.227Z,19.85
2023-02-23T17:07:16.387Z,20.02
2023-02-23T17:09:43.493Z,20.83
2023-02-23T17:12:11.852Z,20.92
2023-02-23T17:14:38.300Z,19.10
2023-02-23T17:17:04.679Z,20.27
2023-02-23T17:19:31.067Z,20.92
2023-02-23T17:21:57.432Z,19.13
2023-02-23T17:24:26.034Z,21.83
2023-02-23T17:26:53.234Z,24.95
2023-02-23T17:29:19.636Z,23.77
2023-02-23T17:31:46.260Z,25.58
2023-02-23T17:34:13.698Z,26.20
2023-02-23T17:36:40.082Z,25.80
2023-02-23T17:39:09.410Z,27.00
2023-02-23T17:41:36.116Z,27.05
2023-02-23T17:44:05.636Z,29.63
2023-02-23T17:46:32.129Z,28.45
2023-02-23T17:48:58.502Z,29.83
2023-02-23T17:51:24.975Z,31.15
2023-02-23T17:53:51.381Z,27.85
2023-02-23T17:56:18.052Z,27.55
2023-02-23T17:58:45.637Z,28.50
2023-02-23T18:01:12.090Z,28.63
2023-02-23T18:03:38.781Z,27.60
2023-02-23T18:06:07.694Z,27.23
2023-02-23T18:08:34.404Z,28.15
2023-02-23T18:11:00.914Z,28.55
2023-02-23T18:13:28.660Z,29.38
2023-02-23T18:15:59.778Z,29.80
2023-02-23T18:18:26.556Z,27.27
2023-02-23T18:20:58.381Z,28.60
2023-02-23T18:23:32.535Z,28.63
2023-02-23T18:26:11.188Z,28.88
2023-02-23T18:28:38.578Z,29.65
2023-02-23T18:31:05.372Z,29.95
2023-02-23T18:33:35.673Z,28.90
2023-02-23T18:36:03.632Z,29.65
2023-02-23T18:38:29.996Z,28.35
2023-02-23T18:40:56.385Z,28.58
2023-02-23T18:43:22.811Z,28.10
2023-02-23T18:45:49.177Z,27.55
2023-02-23T18:48:15.894Z,28.42
2023-02-23T18:50:42.353Z,28.45
2023-02-23T18:53:10.748Z,28.38
2023-02-23T18:55:37.781Z,29.40
2023-02-23T18:58:05.104Z,29.48
2023-02-23T19:00:36.940Z,30.38
2023-02-23T19:03:03.390Z,30.30
2023-02-23T19:05:29.812Z,32.58
2023-02-23T19:07:57.078Z,33.28
2023-02-23T19:10:23.456Z,32.25
2023-02-23T19:12:49.852Z,31.85
2023-02-23T19:15:16.310Z,30.80
2023-02-23T19:17:42.804Z,18.35
2023-02-23T19:20:15.798Z,14.10
2023-02-23T19:22:42.283Z,9.52
2023-02-23T19:25:11.560Z,9.25
2023-02-23T19:27:38.459Z,8.52
2023-02-23T19:30:05.314Z,8.00
2023-02-23T19:32:32.421Z,8.60
2023-02-23T19:34:58.940Z,8.02
2023-02-23T19:37:25.354Z,7.80
2023-02-23T19:39:53.828Z,7.53
2023-02-23T19:42:20.414Z,6.45
2023-02-23T19:44:46.836Z,6.72
2023-02-23T19:47:13.227Z,6.63
2023-02-23T19:49:39.593Z,6.88
2023-02-23T19:52:06.039Z,6.82
2023-02-23T19:54:34.065Z,6.07
2023-02-23T19:57:00.511Z,6.28
2023-02-23T19:59:28.469Z,5.80
2023-02-23T20:01:55.279Z,5.03
2023-02-23T20:04:22.137Z,6.32
2023-02-23T20:06:48.546Z,6.53
2023-02-23T20:09:15.200Z,6.15
2023-02-23T20:11:42.757Z,5.72
2023-02-23T20:14:09.673Z,6.65
2023-02-23T20:16:36.157Z,6.63
2023-02-23T20:19:03.717Z,7.47
2023-02-23T20:21:32.237Z,7.07
2023-02-23T20:24:00.674Z,7.13
2023-02-23T20:26:34.380Z,8.00
2023-02-23T20:29:01.948Z,6.65
2023-02-23T20:31:31.853Z,6.32
2023-02-23T20:34:00.609Z,7.22
2023-02-23T20:36:27.244Z,7.97
2023-02-23T20:38:53.627Z,6.07
2023-02-23T20:41:21.049Z,6.22
2023-02-23T20:43:47.626Z,6.95
2023-02-23T20:46:15.603Z,7.25
2023-02-23T20:48:42.373Z,7.13
2023-02-23T20:51:12.687Z,7.63
2023-02-23T20:53:40.072Z,7.78
2023-02-23T20:56:07.897Z,7.05
2023-02-23T20:58:34.292Z,7.30
2023-02-23T21:01:06.900Z,6.82
2023-02-23T21:03:34.228Z,7.88
2023-02-23T21:06:00.734Z,6.82
2023-02-23T21:08:29.016Z,7.68
2023-02-23T21:10:55.655Z,7.57
2023-02-23T21:13:23.059Z,5.82
2023-02-23T21:15:58.397Z,6.30
2023-02-23T21:18:25.203Z,6.13
2023-02-23T21:20:51.573Z,6.00
2023-02-23T21:23:20.315Z,6.55
2023-02-23T21:25:46.934Z,5.85
2023-02-23T21:28:13.305Z,5.80
2023-02-23T21:30:39.763Z,5.10
2023-02-23T21:33:07.513Z,6.03
2023-02-23T21:35:35.142Z,6.22
2023-02-23T21:38:01.648Z,5.72
2023-02-23T21:40:28.085Z,7.03
2023-02-23T21:42:54.556Z,6.85
2023-02-23T21:45:21.071Z,5.53
2023-02-23T21:47:48.112Z,5.45
2023-02-23T21:50:17.083Z,5.68
2023-02-23T21:52:45.212Z,6.15
2023-02-23T21:55:21.129Z,5.53
2023-02-23T21:57:48.067Z,5.00
2023-02-23T22:00:16.197Z,5.82
2023-02-23T22:02:46.212Z,5.95
2023-02-23T22:05:13.896Z,6.07
2023-02-23T22:07:40.530Z,5.85
2023-02-23T22:10:07.074Z,5.70
2023-02-23T22:12:33.487Z,5.93
2023-02-23T22:15:06.129Z,6.30
2023-02-23T22:17:32.745Z,6.15
2023-02-23T22:19:59.398Z,5.72
2023-02-23T22:22:25.975Z,5.85
2023-02-23T22:24:52.379Z,6.05
2023-02-23T22:27:18.783Z,5.85
2023-02-23T22:29:45.159Z,6.07
2023-02-23T22:32:11.916Z,5.55
2023-02-23T22:34:38.487Z,5.60
2023-02-23T22:37:04.859Z,5.30
2023-02-23T22:39:34.648Z,5.65
2023-02-23T22:42:09.115Z,5.50
2023-02-23T22:44:37.299Z,6.85
2023-02-23T22:47:03.687Z,5.57
2023-02-23T22:49:30.094Z,6.35
2023-02-23T22:51:56.563Z,5.95
2023-02-23T22:54:24.216Z,5.43
2023-02-23T22:56:50.809Z,5.57
2023-02-23T22:59:20.240Z,6.97
2023-02-23T23:01:48.857Z,6.40
2023-02-23T23:04:15.302Z,6.50
2023-02-23T23:06:42.729Z,7.30
2023-02-23T23:09:16.201Z,7.93
2023-02-23T23:11:42.698Z,7.22
2023-02-23T23:14:10.327Z,8.27
2023-02-23T23:16:49.040Z,8.05
2023-02-23T23:19:25.667Z,8.70
2023-02-23T23:21:54.926Z,8.15
2023-02-23T23:24:23.395Z,8.20
2023-02-23T23:26:55.363Z,8.50
2023-02-23T23:29:23.103Z,7.75
2023-02-23T23:31:49.810Z,8.32
2023-02-23T23:34:16.522Z,7.50
2023-02-23T23:36:52.818Z,6.10
2023-02-23T23:39:21.279Z,7.40
2023-02-23T23:41:48.890Z,7.05
2023-02-23T23:44:17.832Z,6.88
2023-02-23T23:46:45.186Z,6.93
2023-02-23T23:49:15.768Z,5.82
2023-02-23T23:51:48.563Z,5.65
2023-02-23T23:54:21.424Z,6.22
2023-02-23T23:56:49.449Z,6.65
2023-02-23T23:59:20.190Z,6.85
